Terminal Aerodrome Forecast
Issued by NWS

Current Version | Previous Version | Graphics & Text | Print | Product List | Glossary On
Versions: 1 2 3 4 5 6 7 8 9 10 11 12 13 14 15 16 17 18
000
FTUS41 KPBZ 220938 AAA
TAFMGW
TAF AMD
KMGW 220938Z 2210/2306 19005KT P6SM VCSH BKN060
     FM221300 20004KT P6SM BKN050
     FM230500 19007KT P6SM -RA BKN025=

USA.gov is the U.S. government's official web portal to all federal, state and local government web resources and services.